createdAt,value
2022-08-21T00:00:20.074Z,83.77
2022-08-21T00:03:16.460Z,83.90
2022-08-21T00:05:47.657Z,83.82
2022-08-21T00:08:15.044Z,83.32
2022-08-21T00:10:43.659Z,82.99
2022-08-21T00:13:12.032Z,82.72
2022-08-21T00:15:41.520Z,82.57
2022-08-21T00:18:12.385Z,82.84
2022-08-21T00:20:41.851Z,82.68
2022-08-21T00:23:09.784Z,82.22
2022-08-21T00:25:37.644Z,82.62
2022-08-21T00:28:05.015Z,82.33
2022-08-21T00:30:32.303Z,82.14
2022-08-21T00:33:00.189Z,82.38
2022-08-21T00:35:31.638Z,82.23
2022-08-21T00:37:58.997Z,82.15
2022-08-21T00:40:31.018Z,82.28
2022-08-21T00:42:58.438Z,81.78
2022-08-21T00:45:26.346Z,82.06
2022-08-21T00:47:53.788Z,82.26
2022-08-21T00:50:21.587Z,82.25
2022-08-21T00:52:50.949Z,81.92
2022-08-21T00:55:18.689Z,81.60
2022-08-21T00:57:50.544Z,82.01
2022-08-21T01:00:23.041Z,81.89
2022-08-21T01:02:49.957Z,81.26
2022-08-21T01:05:17.455Z,81.71
2022-08-21T01:07:44.477Z,81.29
2022-08-21T01:10:13.368Z,81.48
2022-08-21T01:12:56.089Z,81.43
2022-08-21T01:15:28.972Z,81.43
2022-08-21T01:17:55.772Z,81.41
2022-08-21T01:20:23.370Z,81.36
2022-08-21T01:23:01.743Z,81.35
2022-08-21T01:25:28.925Z,81.03
2022-08-21T01:27:56.632Z,81.18
2022-08-21T01:30:28.152Z,80.92
2022-08-21T01:32:56.693Z,80.79
2022-08-21T01:35:24.202Z,81.11
2022-08-21T01:37:51.093Z,81.16
2022-08-21T01:40:18.594Z,81.11
2022-08-21T01:42:46.726Z,81.06
2022-08-21T01:45:16.454Z,81.49
2022-08-21T01:47:44.914Z,81.56
2022-08-21T01:50:14.419Z,81.73
2022-08-21T01:52:41.866Z,82.16
2022-08-21T01:55:11.470Z,83.53
2022-08-21T01:57:39.134Z,83.62
2022-08-21T02:00:10.679Z,84.14
2022-08-21T02:02:42.210Z,84.21
2022-08-21T02:05:11.140Z,84.01
2022-08-21T02:07:43.503Z,84.08
2022-08-21T02:10:13.143Z,84.66
2022-08-21T02:12:40.059Z,84.18
2022-08-21T02:15:09.290Z,84.59
2022-08-21T02:17:45.940Z,84.30
2022-08-21T02:20:26.901Z,84.80
2022-08-21T02:22:54.323Z,84.55
2022-08-21T02:25:24.495Z,85.32
2022-08-21T02:27:51.989Z,86.26
2022-08-21T02:30:27.582Z,87.17
2022-08-21T02:32:54.978Z,87.44
2022-08-21T02:35:23.139Z,86.95
2022-08-21T02:37:53.602Z,87.17
2022-08-21T02:40:25.893Z,87.38
2022-08-21T02:42:53.726Z,87.62
2022-08-21T02:45:21.333Z,87.99
2022-08-21T02:47:54.082Z,87.99
2022-08-21T02:50:24.939Z,87.59
2022-08-21T02:52:55.338Z,87.42
2022-08-21T02:55:25.385Z,87.11
2022-08-21T02:57:52.463Z,87.73
2022-08-21T03:00:19.737Z,88.14
2022-08-21T03:02:46.577Z,88.43
2022-08-21T03:05:14.812Z,88.16
2022-08-21T03:07:43.343Z,89.26
2022-08-21T03:10:10.527Z,89.01
2022-08-21T03:12:41.155Z,87.84
2022-08-21T03:15:11.106Z,87.22
2022-08-21T03:17:38.516Z,87.12
2022-08-21T03:20:08.285Z,86.91
2022-08-21T03:22:36.152Z,86.62
2022-08-21T03:25:05.745Z,87.15
2022-08-21T03:27:34.379Z,87.64
2022-08-21T03:30:02.320Z,87.90
2022-08-21T03:32:29.236Z,88.58
2022-08-21T03:34:55.997Z,88.85
2022-08-21T03:37:22.800Z,89.25
2022-08-21T03:39:49.773Z,88.89
2022-08-21T03:42:16.661Z,88.77
2022-08-21T03:44:43.694Z,89.10
2022-08-21T03:47:10.639Z,88.13
2022-08-21T03:49:38.283Z,88.63
2022-08-21T03:52:05.682Z,87.43
2022-08-21T03:54:32.840Z,87.98
2022-08-21T03:57:00.122Z,87.51
2022-08-21T03:59:27.025Z,87.14
2022-08-21T04:02:00.315Z,86.66
2022-08-21T04:04:28.790Z,87.22
2022-08-21T04:06:57.314Z,87.45
2022-08-21T04:09:25.115Z,87.50
2022-08-21T04:11:51.995Z,87.12
2022-08-21T04:14:19.196Z,87.22
2022-08-21T04:16:46.035Z,86.93
2022-08-21T04:19:14.245Z,86.83
2022-08-21T04:21:41.664Z,87.69
2022-08-21T04:24:11.842Z,87.54
2022-08-21T04:26:39.570Z,86.65
2022-08-21T04:29:06.631Z,86.83
2022-08-21T04:31:36.950Z,87.02
2022-08-21T04:34:06.707Z,87.15
2022-08-21T04:36:34.537Z,87.04
2022-08-21T04:39:03.571Z,86.66
2022-08-21T04:41:30.488Z,86.48
2022-08-21T04:43:57.538Z,86.19
2022-08-21T04:46:24.682Z,86.27
2022-08-21T04:48:51.550Z,85.97
2022-08-21T04:51:36.246Z,85.84
2022-08-21T04:54:18.238Z,84.92
2022-08-21T04:56:57.141Z,85.04
2022-08-21T04:59:28.638Z,85.03
2022-08-21T05:01:55.633Z,85.09
2022-08-21T05:04:27.713Z,84.61
2022-08-21T05:06:57.659Z,84.33
2022-08-21T05:09:25.724Z,84.18
2022-08-21T05:11:52.830Z,84.25
2022-08-21T05:14:20.754Z,83.85
2022-08-21T05:16:47.953Z,83.71
2022-08-21T05:19:15.314Z,84.25
2022-08-21T05:21:45.219Z,83.68
2022-08-21T05:24:12.915Z,83.01
2022-08-21T05:26:46.407Z,82.90
2022-08-21T05:29:18.943Z,82.78
2022-08-21T05:31:47.443Z,83.08
2022-08-21T05:34:21.466Z,82.46
2022-08-21T05:36:48.294Z,82.75
2022-08-21T05:39:15.712Z,82.99
2022-08-21T05:41:42.870Z,83.04
2022-08-21T05:44:10.412Z,82.79
2022-08-21T05:46:38.209Z,82.70
2022-08-21T05:49:05.048Z,82.46
2022-08-21T05:51:32.081Z,82.92
2022-08-21T05:53:58.897Z,82.78
2022-08-21T05:56:25.897Z,82.37
2022-08-21T05:58:52.813Z,82.29
2022-08-21T06:01:19.723Z,82.32
2022-08-21T06:03:46.604Z,82.02
2022-08-21T06:06:13.381Z,81.91
2022-08-21T06:08:40.220Z,82.05
2022-08-21T06:11:09.820Z,82.03
2022-08-21T06:13:37.598Z,81.58
2022-08-21T06:16:11.050Z,81.58
2022-08-21T06:18:38.712Z,81.58
2022-08-21T06:21:06.622Z,81.33
2022-08-21T06:23:34.433Z,81.07
2022-08-21T06:26:03.154Z,80.54
2022-08-21T06:28:30.253Z,80.87
2022-08-21T06:30:57.072Z,80.18
2022-08-21T06:33:23.902Z,80.33
2022-08-21T06:35:51.015Z,80.23
2022-08-21T06:38:18.195Z,79.96
2022-08-21T06:40:46.968Z,80.11
2022-08-21T06:43:17.599Z,80.06
2022-08-21T06:45:45.601Z,79.88
2022-08-21T06:48:16.914Z,79.88
2022-08-21T06:50:46.246Z,79.51
2022-08-21T06:53:15.204Z,79.37
2022-08-21T06:55:42.689Z,79.08
2022-08-21T06:58:10.637Z,79.23
2022-08-21T07:00:41.899Z,78.79
2022-08-21T07:03:08.796Z,78.43
2022-08-21T07:05:35.619Z,78.30
2022-08-21T07:08:02.559Z,78.34
2022-08-21T07:10:29.490Z,78.26
2022-08-21T07:13:00.532Z,78.74
2022-08-21T07:15:31.034Z,78.45
2022-08-21T07:17:59.762Z,78.45
2022-08-21T07:20:28.290Z,78.92
2022-08-21T07:22:55.808Z,78.86
2022-08-21T07:25:22.822Z,79.20
2022-08-21T07:27:49.679Z,79.12
2022-08-21T07:30:16.532Z,79.45
2022-08-21T07:32:43.441Z,79.18
2022-08-21T07:35:10.284Z,79.10
2022-08-21T07:37:37.235Z,79.04
2022-08-21T07:40:04.759Z,78.96
2022-08-21T07:42:31.726Z,79.30
2022-08-21T07:44:58.523Z,79.69
2022-08-21T07:47:29.313Z,79.99
2022-08-21T07:50:09.563Z,80.52
2022-08-21T07:52:36.506Z,81.68
2022-08-21T07:55:06.291Z,82.02
2022-08-21T07:57:34.405Z,83.40
2022-08-21T08:00:01.205Z,83.01
2022-08-21T08:02:30.226Z,81.85
2022-08-21T08:05:05.666Z,81.38
2022-08-21T08:07:32.795Z,80.81
2022-08-21T08:09:59.836Z,80.88
2022-08-21T08:12:26.969Z,80.72
2022-08-21T08:14:53.884Z,81.34
2022-08-21T08:17:20.753Z,81.15
2022-08-21T08:19:47.555Z,80.67
2022-08-21T08:22:15.934Z,80.16
2022-08-21T08:24:42.992Z,79.56
2022-08-21T08:27:09.941Z,80.14
2022-08-21T08:29:36.808Z,79.70
2022-08-21T08:32:05.080Z,78.42
2022-08-21T08:34:31.953Z,78.39
2022-08-21T08:36:58.805Z,77.79
2022-08-21T08:39:29.405Z,78.11
2022-08-21T08:42:33.593Z,77.70
2022-08-21T08:45:06.927Z,77.83
2022-08-21T08:47:37.595Z,77.39
2022-08-21T08:50:08.968Z,77.56
2022-08-21T08:52:42.796Z,78.04
2022-08-21T08:55:15.180Z,79.06
2022-08-21T08:57:46.230Z,80.14
2022-08-21T09:00:19.812Z,80.09
2022-08-21T09:02:47.472Z,80.30
2022-08-21T09:05:25.838Z,80.66
2022-08-21T09:08:18.988Z,80.00
2022-08-21T09:11:11.572Z,81.21
2022-08-21T09:14:02.511Z,81.77
2022-08-21T09:16:55.113Z,82.52
2022-08-21T09:19:47.922Z,82.93
2022-08-21T09:22:43.742Z,83.59
2022-08-21T09:25:24.139Z,84.75
2022-08-21T09:27:51.921Z,85.25
2022-08-21T09:30:25.017Z,85.59
2022-08-21T09:32:52.055Z,85.95
2022-08-21T09:35:23.159Z,86.64
2022-08-21T09:37:57.207Z,86.78
2022-08-21T09:40:33.101Z,86.38
2022-08-21T09:43:07.089Z,86.58
2022-08-21T09:45:36.371Z,87.48
2022-08-21T09:48:21.223Z,89.41
2022-08-21T09:50:49.942Z,87.88
2022-08-21T09:53:18.512Z,89.38
2022-08-21T09:56:17.094Z,89.80
2022-08-21T09:58:46.816Z,88.34
2022-08-21T10:01:17.238Z,87.72
2022-08-21T10:03:44.831Z,88.76
2022-08-21T10:06:21.572Z,88.05
2022-08-21T10:08:49.304Z,89.10
2022-08-21T10:11:18.303Z,89.62
2022-08-21T10:13:45.055Z,89.88
2022-08-21T10:16:33.867Z,89.27
2022-08-21T10:19:23.529Z,89.88
2022-08-21T10:22:04.558Z,90.07
2022-08-21T10:24:49.615Z,90.68
2022-08-21T10:27:48.697Z,90.18
2022-08-21T10:30:20.338Z,89.85
2022-08-21T10:33:08.890Z,88.66
2022-08-21T10:35:57.853Z,88.88
2022-08-21T10:38:55.274Z,88.93
2022-08-21T10:41:43.993Z,89.43
2022-08-21T10:44:29.439Z,90.01
2022-08-21T10:47:35.103Z,90.41
2022-08-21T10:50:55.735Z,88.84
2022-08-21T10:53:42.430Z,89.67
2022-08-21T10:56:18.349Z,89.24
2022-08-21T10:59:17.011Z,89.19
2022-08-21T11:01:52.097Z,89.54
2022-08-21T11:04:48.766Z,89.58
2022-08-21T11:07:58.038Z,90.84
2022-08-21T11:10:41.587Z,88.43
2022-08-21T11:13:41.367Z,88.44
2022-08-21T11:16:32.587Z,90.67
2022-08-21T11:19:35.026Z,88.78
2022-08-21T11:22:29.760Z,87.79
2022-08-21T11:25:08.807Z,86.69
2022-08-21T11:27:38.469Z,86.33
2022-08-21T11:30:06.935Z,84.13
2022-08-21T11:33:13.232Z,84.65
2022-08-21T11:36:02.873Z,84.10
2022-08-21T11:38:36.216Z,83.50
2022-08-21T11:41:28.526Z,82.86
2022-08-21T11:44:15.785Z,82.73
2022-08-21T11:46:54.753Z,82.89
2022-08-21T11:49:50.584Z,82.30
2022-08-21T11:52:40.486Z,82.51
2022-08-21T11:55:23.703Z,81.76
2022-08-21T11:57:54.973Z,81.79
2022-08-21T12:00:37.134Z,80.50
2022-08-21T12:03:13.277Z,79.71
2022-08-21T12:05:56.779Z,80.00
2022-08-21T12:08:41.108Z,78.56
2022-08-21T12:11:24.807Z,79.74
2022-08-21T12:14:17.841Z,78.93
2022-08-21T12:16:48.111Z,80.68
2022-08-21T12:19:21.090Z,80.31
2022-08-21T12:22:10.602Z,80.08
2022-08-21T12:24:41.931Z,82.22
2022-08-21T12:27:15.025Z,82.23
2022-08-21T12:29:49.210Z,82.46
2022-08-21T12:32:16.015Z,82.14
2022-08-21T12:34:58.921Z,82.32
2022-08-21T12:37:53.507Z,82.46
2022-08-21T12:40:25.027Z,82.63
2022-08-21T12:43:00.358Z,82.60
2022-08-21T12:45:39.032Z,83.19
2022-08-21T12:48:16.104Z,84.55
2022-08-21T12:50:49.261Z,85.16
2022-08-21T12:53:41.809Z,84.88
2022-08-21T12:56:15.122Z,85.65
2022-08-21T12:58:48.070Z,84.05
2022-08-21T13:01:27.063Z,83.98
2022-08-21T13:04:04.576Z,83.69
2022-08-21T13:06:38.742Z,83.75
2022-08-21T13:09:09.461Z,83.82
2022-08-21T13:11:36.635Z,83.74
2022-08-21T13:14:18.891Z,83.41
2022-08-21T13:16:46.655Z,82.34
2022-08-21T13:19:23.318Z,82.39
2022-08-21T13:21:51.526Z,82.65
2022-08-21T13:24:45.914Z,84.04
2022-08-21T13:27:22.349Z,83.97
2022-08-21T13:29:54.161Z,83.91
2022-08-21T13:32:27.280Z,84.03
2022-08-21T13:34:54.573Z,84.10
2022-08-21T13:37:24.318Z,83.85
2022-08-21T13:39:53.713Z,83.35
2022-08-21T13:42:21.230Z,83.65
2022-08-21T13:44:48.906Z,83.32
2022-08-21T13:47:17.909Z,82.91
2022-08-21T13:49:48.018Z,82.69
2022-08-21T13:52:17.793Z,82.84
2022-08-21T13:54:44.772Z,82.98
2022-08-21T13:57:27.755Z,82.93
2022-08-21T14:00:20.831Z,83.42
2022-08-21T14:02:51.532Z,82.57
2022-08-21T14:05:27.353Z,82.40
2022-08-21T14:08:30.044Z,82.08
2022-08-21T14:10:58.748Z,81.94
2022-08-21T14:13:31.309Z,81.69
2022-08-21T14:16:02.274Z,81.86
2022-08-21T14:18:29.905Z,81.75
2022-08-21T14:21:09.179Z,80.88
2022-08-21T14:23:36.430Z,80.67
2022-08-21T14:26:07.017Z,80.93
2022-08-21T14:28:42.578Z,79.92
2022-08-21T14:31:21.414Z,80.09
2022-08-21T14:33:49.273Z,79.92
2022-08-21T14:36:16.373Z,80.39
2022-08-21T14:38:43.885Z,79.82
2022-08-21T14:41:19.803Z,80.40
2022-08-21T14:43:48.142Z,80.27
2022-08-21T14:46:29.641Z,80.22
2022-08-21T14:48:56.725Z,80.16
2022-08-21T14:51:23.538Z,80.57
2022-08-21T14:53:50.425Z,80.22
2022-08-21T14:56:18.635Z,79.61
2022-08-21T14:58:49.423Z,80.19
2022-08-21T15:01:18.238Z,80.18
2022-08-21T15:03:46.166Z,80.25
2022-08-21T15:06:13.314Z,80.02
2022-08-21T15:08:40.185Z,79.84
2022-08-21T15:11:12.669Z,80.27
2022-08-21T15:13:40.984Z,80.17
2022-08-21T15:16:10.189Z,79.33
2022-08-21T15:18:37.060Z,79.65
2022-08-21T15:21:04.021Z,79.06
2022-08-21T15:23:30.907Z,79.42
2022-08-21T15:25:57.898Z,79.02
2022-08-21T15:28:26.783Z,79.31
2022-08-21T15:31:01.626Z,79.27
2022-08-21T15:33:29.112Z,79.40
2022-08-21T15:35:55.878Z,79.18
2022-08-21T15:38:23.217Z,79.79
2022-08-21T15:40:51.984Z,78.69
2022-08-21T15:43:31.657Z,78.30
2022-08-21T15:46:02.218Z,77.75
2022-08-21T15:48:30.117Z,77.32
2022-08-21T15:50:57.028Z,76.14
2022-08-21T15:53:23.956Z,75.76
2022-08-21T15:55:51.045Z,75.64
2022-08-21T15:58:18.321Z,75.89
2022-08-21T16:00:45.441Z,74.88
2022-08-21T16:03:15.696Z,74.85
2022-08-21T16:05:42.598Z,74.62
2022-08-21T16:08:09.670Z,74.17
2022-08-21T16:10:37.219Z,73.90
2022-08-21T16:13:07.315Z,73.95
2022-08-21T16:15:34.320Z,73.94
2022-08-21T16:18:02.861Z,74.07
2022-08-21T16:20:31.002Z,74.29
2022-08-21T16:22:59.049Z,74.35
2022-08-21T16:25:26.278Z,74.48
2022-08-21T16:27:59.602Z,74.65
2022-08-21T16:30:30.742Z,74.62
2022-08-21T16:32:58.187Z,74.79
2022-08-21T16:35:25.196Z,74.42
2022-08-21T16:37:53.321Z,74.36
2022-08-21T16:40:21.593Z,74.40
2022-08-21T16:42:48.909Z,74.11
2022-08-21T16:45:19.661Z,74.21
2022-08-21T16:47:46.531Z,74.38
2022-08-21T16:50:20.887Z,74.36
2022-08-21T16:52:48.030Z,74.43
2022-08-21T16:55:14.899Z,74.05
2022-08-21T16:57:42.551Z,74.16
2022-08-21T17:00:10.910Z,74.03
2022-08-21T17:02:41.192Z,73.77
2022-08-21T17:05:14.030Z,73.46
2022-08-21T17:07:42.913Z,73.92
2022-08-21T17:10:11.441Z,74.17
2022-08-21T17:12:39.041Z,74.01
2022-08-21T17:15:12.902Z,74.08
2022-08-21T17:17:39.937Z,73.88
2022-08-21T17:20:07.527Z,73.81
2022-08-21T17:22:34.398Z,74.04
2022-08-21T17:25:01.229Z,73.99
2022-08-21T17:27:28.417Z,73.97
2022-08-21T17:29:56.479Z,73.96
2022-08-21T17:32:24.276Z,73.72
2022-08-21T17:34:51.236Z,74.03
2022-08-21T17:37:18.667Z,73.88
2022-08-21T17:39:45.596Z,73.96
2022-08-21T17:42:14.070Z,73.59
2022-08-21T17:44:43.842Z,73.76
2022-08-21T17:47:11.970Z,73.67
2022-08-21T17:49:39.200Z,73.85
2022-08-21T17:52:07.042Z,73.50
2022-08-21T17:54:35.213Z,73.81
2022-08-21T17:57:03.061Z,73.44
2022-08-21T17:59:30.054Z,73.40
2022-08-21T18:01:57.045Z,73.52
2022-08-21T18:04:23.925Z,73.46
2022-08-21T18:06:50.767Z,73.25
2022-08-21T18:09:17.623Z,73.53
2022-08-21T18:11:44.562Z,73.19
2022-08-21T18:14:12.443Z,73.16
2022-08-21T18:16:39.585Z,72.92
2022-08-21T18:19:10.664Z,72.72
2022-08-21T18:21:37.987Z,72.62
2022-08-21T18:24:05.282Z,72.71
2022-08-21T18:26:39.687Z,72.69
2022-08-21T18:29:10.414Z,72.97
2022-08-21T18:31:39.030Z,72.81
2022-08-21T18:34:15.921Z,72.89
2022-08-21T18:36:45.255Z,73.18
2022-08-21T18:39:34.994Z,72.81
2022-08-21T18:42:00.663Z,73.10
2022-08-21T18:44:28.081Z,73.05
2022-08-21T18:47:01.643Z,73.12
2022-08-21T18:49:29.386Z,73.33
2022-08-21T18:51:57.503Z,73.52
2022-08-21T18:54:25.223Z,73.49
2022-08-21T18:56:54.934Z,73.63
2022-08-21T18:59:29.074Z,73.52
2022-08-21T19:01:57.899Z,73.75
2022-08-21T19:04:43.783Z,73.72
2022-08-21T19:07:12.677Z,74.24
2022-08-21T19:09:40.517Z,74.29
2022-08-21T19:12:14.031Z,74.32
2022-08-21T19:14:41.920Z,74.37
2022-08-21T19:17:09.367Z,74.29
2022-08-21T19:22:24.830Z,74.33
2022-08-21T19:24:52.058Z,74.49
2022-08-21T19:27:19.340Z,74.15
2022-08-21T19:29:46.589Z,74.26
2022-08-21T19:32:14.153Z,74.07
2022-08-21T19:34:42.352Z,74.12
2022-08-21T19:37:12.491Z,74.31
2022-08-21T19:39:44.850Z,74.14
2022-08-21T19:42:16.943Z,74.35
2022-08-21T19:44:45.239Z,74.29
2022-08-21T19:47:20.383Z,74.20
2022-08-21T19:49:52.777Z,74.42
2022-08-21T19:52:21.915Z,74.09
2022-08-21T19:54:51.238Z,73.93
2022-08-21T19:57:18.898Z,74.14
2022-08-21T19:59:46.187Z,73.81
2022-08-21T20:02:15.296Z,73.77
2022-08-21T20:04:53.561Z,73.81
2022-08-21T20:07:25.164Z,73.90
2022-08-21T20:09:55.621Z,74.31
2022-08-21T20:12:24.721Z,74.37
2022-08-21T20:14:52.430Z,74.84
2022-08-21T20:17:21.120Z,75.19
2022-08-21T20:19:52.653Z,75.14
2022-08-21T20:22:24.966Z,75.59
2022-08-21T20:24:53.618Z,75.66
2022-08-21T20:27:26.450Z,75.75
2022-08-21T20:29:55.463Z,75.75
2022-08-21T20:32:22.691Z,76.08
2022-08-21T20:34:51.834Z,75.67
2022-08-21T20:37:22.202Z,75.77
2022-08-21T20:40:06.424Z,75.68
2022-08-21T20:42:33.838Z,75.28
2022-08-21T20:45:00.748Z,75.29
2022-08-21T20:47:30.162Z,75.35
2022-08-21T20:50:02.632Z,75.10
2022-08-21T20:52:34.506Z,74.57
2022-08-21T20:55:09.754Z,75.21
2022-08-21T20:57:50.931Z,76.18
2022-08-21T21:00:22.696Z,77.33
2022-08-21T21:03:13.865Z,78.55
2022-08-21T21:05:54.154Z,78.96
2022-08-21T21:08:26.537Z,78.63
2022-08-21T21:11:05.287Z,78.06
2022-08-21T21:13:35.143Z,77.57
2022-08-21T21:16:08.566Z,77.33
2022-08-21T21:18:41.878Z,77.62
2022-08-21T21:21:17.269Z,77.86
2022-08-21T21:23:46.880Z,78.41
2022-08-21T21:26:29.348Z,78.76
2022-08-21T21:29:12.296Z,79.22
2022-08-21T21:31:42.119Z,79.84
2022-08-21T21:34:09.111Z,80.37
2022-08-21T21:36:56.445Z,80.13
2022-08-21T21:39:41.727Z,81.40
2022-08-21T21:42:41.222Z,81.10
2022-08-21T21:45:17.351Z,81.95
2022-08-21T21:48:04.344Z,82.29
2022-08-21T21:50:42.655Z,82.42
2022-08-21T21:53:12.784Z,82.91
2022-08-21T21:56:00.513Z,82.88
2022-08-21T21:59:14.939Z,82.62
2022-08-21T22:02:17.867Z,82.00
2022-08-21T22:04:56.869Z,82.75
2022-08-21T22:07:49.917Z,82.45
2022-08-21T22:10:43.899Z,83.31
2022-08-21T22:13:28.027Z,83.95
2022-08-21T22:15:56.497Z,82.92
2022-08-21T22:18:28.673Z,82.03
2022-08-21T22:21:05.376Z,82.44
2022-08-21T22:23:40.799Z,82.86
2022-08-21T22:26:16.955Z,82.49
2022-08-21T22:28:47.659Z,82.69
2022-08-21T22:31:19.909Z,83.22
2022-08-21T22:34:17.659Z,83.70
2022-08-21T22:36:54.721Z,83.58
2022-08-21T22:39:39.050Z,83.58
2022-08-21T22:42:12.809Z,83.34
2022-08-21T22:44:55.333Z,83.75
2022-08-21T22:47:44.761Z,83.77
2022-08-21T22:50:18.384Z,84.34
2022-08-21T22:52:50.285Z,84.89
2022-08-21T22:55:24.778Z,85.42
2022-08-21T22:58:23.092Z,84.73
2022-08-21T23:00:58.161Z,85.19
2022-08-21T23:03:42.899Z,85.60
2022-08-21T23:06:30.619Z,85.96
2022-08-21T23:09:00.395Z,86.38
2022-08-21T23:11:39.026Z,86.92
2022-08-21T23:14:06.736Z,87.07
2022-08-21T23:17:02.751Z,87.25
2022-08-21T23:19:44.607Z,87.51
2022-08-21T23:22:33.220Z,88.53
2022-08-21T23:25:10.271Z,88.52
2022-08-21T23:27:47.928Z,87.64
2022-08-21T23:30:24.178Z,88.12
2022-08-21T23:33:20.639Z,88.45
2022-08-21T23:36:15.607Z,88.52
2022-08-21T23:39:01.787Z,89.01
2022-08-21T23:41:53.563Z,88.74
2022-08-21T23:44:46.893Z,89.29
2022-08-21T23:47:42.653Z,89.20
2022-08-21T23:50:14.749Z,89.80
2022-08-21T23:52:59.706Z,89.76
2022-08-21T23:56:03.635Z,89.74
2022-08-21T23:58:42.803Z,89.86
